Time;durP1;ratioP1;P1;durP2;ratioP2;P2;SDS_P1;SDS_P2;PMS_P1;PMS_P2;Temp;Humidity;BMP_temperature;BMP_pressure;BME280_temperature;BME280_humidity;BME280_pressure;Samples;Min_cycle;Max_cycle;Signal;HPM_P1;HPM_P2
2022/01/12 00:00:50;;;;;;;4.57;1.77;;;;;;;1.04;100.00;102914.06;5043833;28;20039;-52
2022/01/12 00:03:15;;;;;;;3.85;3.00;;;;;;;1.05;100.00;102920.97;5048704;28;20029;-51
2022/01/12 00:05:41;;;;;;;13.02;2.75;;;;;;;1.03;100.00;102936.75;5040783;28;20119;-49
2022/01/12 00:08:08;;;;;;;2.90;1.90;;;;;;;0.95;100.00;102937.97;5032174;28;20032;-49
2022/01/12 00:10:34;;;;;;;6.05;2.42;;;;;;;0.85;100.00;102937.53;5041481;28;20040;-47
2022/01/12 00:12:59;;;;;;;2.90;1.25;;;;;;;0.79;100.00;102937.81;5046229;28;20061;-52
2022/01/12 00:15:25;;;;;;;9.05;2.95;;;;;;;0.75;100.00;102944.94;5028947;28;20110;-50
2022/01/12 00:17:50;;;;;;;7.22;2.05;;;;;;;0.75;100.00;102950.19;5054679;28;20040;-50
2022/01/12 00:20:16;;;;;;;7.70;1.90;;;;;;;0.83;100.00;102955.91;5044258;28;20033;-47
2022/01/12 00:22:41;;;;;;;5.57;3.22;;;;;;;0.87;100.00;102964.44;5049459;28;20446;-50
2022/01/12 00:25:31;;;;;;;3.33;1.60;;;;;;;0.80;100.00;102963.88;5044822;28;20386;-49
2022/01/12 00:33:22;;;;;;;6.25;2.10;;;;;;;0.68;100.00;102984.44;5046089;28;20059;-49
2022/01/12 00:35:52;;;;;;;9.25;3.00;;;;;;;0.76;100.00;102984.97;5046828;28;20033;-51
2022/01/12 00:38:21;;;;;;;9.83;2.67;;;;;;;0.83;100.00;102994.25;5045586;28;20068;-47
2022/01/12 00:40:50;;;;;;;9.05;2.72;;;;;;;0.81;100.00;102996.91;5050900;28;20277;-53
2022/01/12 00:43:17;;;;;;;6.05;2.22;;;;;;;0.78;100.00;103001.44;5056952;28;20115;-51
2022/01/12 00:45:45;;;;;;;12.40;3.83;;;;;;;0.83;100.00;102996.84;5036602;28;20394;-51
2022/01/12 00:48:11;;;;;;;12.68;2.92;;;;;;;1.07;100.00;102993.16;5053648;28;20515;-50
2022/01/12 00:50:37;;;;;;;12.82;2.65;;;;;;;1.16;100.00;102998.88;5054792;28;20558;-48
2022/01/12 00:53:04;;;;;;;11.88;2.80;;;;;;;1.12;100.00;103002.56;5050545;28;20033;-50
2022/01/12 00:55:30;;;;;;;11.57;4.97;;;;;;;0.98;100.00;103004.03;5031530;28;20656;-50
2022/01/12 00:57:58;;;;;;;10.48;3.58;;;;;;;0.87;100.00;103019.28;5047997;28;20035;-48
2022/01/12 01:00:25;;;;;;;8.93;3.08;;;;;;;0.81;100.00;103033.47;5048071;28;20037;-49
2022/01/12 01:02:51;;;;;;;3.47;2.42;;;;;;;0.73;100.00;103039.94;5052530;28;20025;-51
2022/01/12 01:05:21;;;;;;;5.45;2.17;;;;;;;0.65;100.00;103042.88;5032143;28;20033;-47
2022/01/12 01:07:47;;;;;;;9.65;2.95;;;;;;;0.62;100.00;103056.91;5060385;28;20532;-53
2022/01/12 01:10:19;;;;;;;8.88;2.63;;;;;;;0.56;100.00;103057.13;5054336;28;20060;-53
2022/01/12 01:12:46;;;;;;;9.77;3.33;;;;;;;0.56;100.00;103051.91;5048398;28;20037;-49
2022/01/12 01:15:14;;;;;;;9.27;2.53;;;;;;;0.60;100.00;103045.66;5045704;28;20037;-50
2022/01/12 01:25:44;;;;;;;4.72;2.83;;;;;;;0.48;100.00;103046.16;5045460;28;19924;-54
2022/01/12 01:28:11;;;;;;;13.77;2.85;;;;;;;0.43;100.00;103048.97;5049938;28;20040;-49
2022/01/12 01:30:39;;;;;;;7.65;1.42;;;;;;;0.37;100.00;103043.16;5046089;28;20390;-49
2022/01/12 01:33:06;;;;;;;10.90;2.65;;;;;;;0.25;100.00;103033.19;5033571;28;20104;-54
2022/01/12 01:35:38;;;;;;;7.35;2.33;;;;;;;0.14;100.00;103031.88;5047209;28;20036;-52
2022/01/12 01:38:04;;;;;;;4.07;1.50;;;;;;;0.08;100.00;103032.13;5058671;28;20058;-52
2022/01/12 01:40:32;;;;;;;6.68;2.17;;;;;;;0.05;100.00;103020.94;5064809;28;20063;-51
2022/01/12 01:53:41;;;;;;;6.78;2.40;;;;;;;-0.20;100.00;103050.59;5059943;28;20031;-50
2022/01/12 01:56:07;;;;;;;9.43;2.67;;;;;;;-0.19;100.00;103067.09;5046642;28;20041;-48
2022/01/12 01:58:33;;;;;;;8.20;3.40;;;;;;;-0.20;100.00;103066.25;5054777;28;20485;-52
2022/01/12 02:00:58;;;;;;;9.25;2.65;;;;;;;-0.26;100.00;103076.88;5051573;28;20033;-52
2022/01/12 02:03:29;;;;;;;8.88;2.47;;;;;;;-0.35;100.00;103077.25;5035133;28;20060;-47
2022/01/12 02:05:55;;;;;;;13.95;2.63;;;;;;;-0.46;100.00;103070.66;5017104;28;20040;-49
2022/01/12 02:08:20;;;;;;;8.27;2.75;;;;;;;-0.53;100.00;103068.31;5053103;28;20041;-48
2022/01/12 02:10:45;;;;;;;3.30;1.52;;;;;;;-0.53;100.00;103084.81;5055420;28;20039;-50
2022/01/12 02:13:11;;;;;;;10.32;3.08;;;;;;;-0.50;100.00;103087.31;5052248;28;20079;-49
2022/01/12 02:15:39;;;;;;;6.55;2.80;;;;;;;-0.50;100.00;103086.47;5050307;28;20405;-54
2022/01/12 02:18:13;;;;;;;4.03;2.05;;;;;;;-0.58;100.00;103098.91;5059497;28;20443;-50
2022/01/12 02:40:19;;;;;;;4.13;1.73;;;;;;;-0.80;100.00;103097.06;5051535;28;20047;-52
2022/01/12 02:42:48;;;;;;;15.20;4.45;;;;;;;-0.78;100.00;103092.63;5055946;28;20033;-49
2022/01/12 02:50:46;;;;;;;8.48;2.38;;;;;;;-0.73;100.00;103098.53;5057681;28;20097;-50
2022/01/12 02:55:59;;;;;;;43.28;5.72;;;;;;;-0.82;100.00;103104.09;5038819;28;20402;-50
2022/01/12 02:58:24;;;;;;;13.77;2.83;;;;;;;-0.85;100.00;103099.00;5045967;28;20043;-48
2022/01/12 03:03:41;;;;;;;21.13;3.58;;;;;;;-0.94;100.00;103104.50;5034986;28;20096;-50
2022/01/12 03:06:08;;;;;;;18.50;4.32;;;;;;;-0.99;100.00;103106.41;5047632;28;20040;-50
2022/01/12 03:08:37;;;;;;;10.18;2.65;;;;;;;-0.98;100.00;103102.88;5058777;28;20404;-47
2022/01/12 03:11:12;;;;;;;51.47;4.68;;;;;;;-0.99;100.00;103099.44;5050332;28;20037;-47
2022/01/12 03:13:38;;;;;;;25.30;5.43;;;;;;;-1.05;100.00;103101.41;5043334;28;20112;-53
2022/01/12 03:16:12;;;;;;;21.98;5.05;;;;;;;-1.07;100.00;103100.59;5044081;28;20065;-49
2022/01/12 03:18:37;;;;;;;5.43;2.05;;;;;;;-1.10;100.00;103104.16;5059769;28;20040;-48
2022/01/12 03:21:05;;;;;;;87.57;6.22;;;;;;;-1.10;100.00;103104.16;5045067;28;20431;-52
2022/01/12 03:23:31;;;;;;;10.13;3.22;;;;;;;-1.14;100.00;103112.97;5031012;28;20189;-52
2022/01/12 03:25:56;;;;;;;39.67;6.32;;;;;;;-1.19;100.00;103094.91;5045407;28;20467;-51
2022/01/12 03:28:22;;;;;;;7.88;3.00;;;;;;;-1.25;100.00;103102.91;5057384;28;20025;-48
2022/01/12 03:30:58;;;;;;;12.52;6.30;;;;;;;-1.34;100.00;103111.03;5060718;28;20058;-52
2022/01/12 03:38:45;;;;;;;7.15;2.47;;;;;;;-1.53;100.00;103123.75;5052465;28;20040;-50
2022/01/12 03:41:12;;;;;;;7.78;2.47;;;;;;;-1.60;100.00;103123.13;5054549;28;20398;-51
2022/01/12 03:43:37;;;;;;;42.40;6.20;;;;;;;-1.67;100.00;103124.19;5038872;28;20090;-51
2022/01/12 03:46:03;;;;;;;4.50;1.73;;;;;;;-1.75;100.00;103115.78;5056829;28;20505;-52
2022/01/12 03:48:28;;;;;;;5.25;1.98;;;;;;;-1.80;100.00;103122.88;5058092;28;20025;-48
2022/01/12 03:50:56;;;;;;;6.03;2.00;;;;;;;-1.83;100.00;103122.97;5052843;28;20036;-50
2022/01/12 03:53:22;;;;;;;2.10;1.80;;;;;;;-1.87;100.00;103130.00;5040340;28;20081;-48
2022/01/12 03:55:47;;;;;;;3.38;1.92;;;;;;;-1.90;100.00;103132.69;5055624;28;20099;-48
2022/01/12 03:58:12;;;;;;;4.45;1.73;;;;;;;-1.91;100.00;103132.72;5055574;28;20070;-48
2022/01/12 04:00:38;;;;;;;7.22;2.67;;;;;;;-1.98;100.00;103132.91;5040854;28;20055;-52
2022/01/12 04:03:06;;;;;;;10.50;4.85;;;;;;;-1.99;100.00;103138.16;5047248;28;20438;-49
2022/01/12 04:08:20;;;;;;;6.28;2.13;;;;;;;-2.05;100.00;103133.13;5050391;28;20037;-48
2022/01/12 04:10:53;;;;;;;5.25;2.90;;;;;;;-2.08;100.00;103130.63;5035252;28;20390;-50
2022/01/12 04:13:21;;;;;;;4.72;2.10;;;;;;;-2.11;100.00;103138.53;5049009;28;20039;-51
2022/01/12 04:15:56;;;;;;;9.35;2.65;;;;;;;-2.12;100.00;103139.41;5045574;28;20079;-49
2022/01/12 04:18:21;;;;;;;3.67;1.67;;;;;;;-2.13;100.00;103146.34;5054799;28;20639;-50
2022/01/12 04:20:49;;;;;;;6.43;1.83;;;;;;;-2.13;100.00;103146.34;5059679;28;20029;-49
2022/01/12 04:23:17;;;;;;;6.20;2.50;;;;;;;-2.13;100.00;103145.50;5051571;28;20064;-53
2022/01/12 04:25:56;;;;;;;8.00;2.80;;;;;;;-2.15;100.00;103148.13;5050608;28;20029;-49
2022/01/12 04:28:23;;;;;;;7.45;2.25;;;;;;;-2.20;100.00;103143.06;5057460;28;20032;-51
2022/01/12 04:30:51;;;;;;;10.95;3.22;;;;;;;-2.23;100.00;103135.34;5064257;28;20075;-51
2022/01/12 04:33:18;;;;;;;5.20;2.30;;;;;;;-2.26;100.00;103130.25;5048761;28;20040;-47
2022/01/12 04:35:47;;;;;;;3.30;1.90;;;;;;;-2.28;100.00;103128.59;5047975;28;20376;-50
2022/01/12 04:38:14;;;;;;;6.28;2.25;;;;;;;-2.34;100.00;103137.41;5038892;28;20060;-50
2022/01/12 04:40:40;;;;;;;10.57;2.92;;;;;;;-2.33;100.00;103144.31;5056153;28;20045;-49
2022/01/12 04:43:07;;;;;;;5.13;1.73;;;;;;;-2.31;100.00;103144.28;5048443;28;20128;-51
2022/01/12 04:48:09;;;;;;;10.55;2.70;;;;;;;-2.33;100.00;103146.06;5056396;28;20144;-47
2022/01/12 04:50:37;;;;;;;4.03;1.55;;;;;;;-2.33;100.00;103151.25;5033025;28;20032;-48
2022/01/12 04:53:04;;;;;;;7.88;2.30;;;;;;;-2.33;100.00;103153.84;5041815;28;20044;-51
2022/01/12 04:55:29;;;;;;;7.35;2.38;;;;;;;-2.38;100.00;103158.31;5032802;28;20083;-52
2022/01/12 04:57:55;;;;;;;2.35;1.17;;;;;;;-2.40;100.00;103160.97;5038641;28;20128;-49
2022/01/12 05:00:22;;;;;;;5.63;2.05;;;;;;;-2.34;100.00;103167.75;5028776;28;20175;-52
2022/01/12 05:13:29;;;;;;;6.20;1.67;;;;;;;-2.45;100.00;103175.84;5043895;28;20079;-49
2022/01/12 05:15:55;;;;;;;6.60;2.45;;;;;;;-2.50;100.00;103177.72;5041180;28;20036;-46
2022/01/12 05:18:20;;;;;;;5.55;2.13;;;;;;;-2.52;100.00;103174.28;5041046;28;20376;-48
2022/01/12 05:20:46;;;;;;;3.17;2.30;;;;;;;-2.53;100.00;103181.25;5045326;28;20045;-50
2022/01/12 05:23:13;;;;;;;4.78;1.65;;;;;;;-2.58;100.00;103179.63;5044409;28;20374;-49
2022/01/12 05:25:39;;;;;;;5.13;2.13;;;;;;;-2.66;100.00;103188.50;5040587;28;20045;-49
2022/01/12 05:28:05;;;;;;;6.38;2.15;;;;;;;-2.68;100.00;103189.41;5041628;28;20026;-52
2022/01/12 05:30:31;;;;;;;4.47;1.60;;;;;;;-2.65;100.00;103187.59;5037152;28;20542;-49
2022/01/12 05:32:56;;;;;;;8.23;2.08;;;;;;;-2.67;100.00;103188.53;5042782;28;20502;-48
2022/01/12 05:35:22;;;;;;;5.20;1.48;;;;;;;-2.70;100.00;103193.78;5045879;28;20074;-46
2022/01/12 05:37:47;;;;;;;4.03;2.08;;;;;;;-2.74;100.00;103186.97;5043361;28;20036;-48
2022/01/12 05:40:16;;;;;;;2.33;1.33;;;;;;;-2.75;100.00;103196.50;5040547;28;20116;-51
2022/01/12 05:42:43;;;;;;;10.50;2.47;;;;;;;-2.83;100.00;103189.81;5042497;28;20034;-48
2022/01/12 05:45:09;;;;;;;6.18;1.67;;;;;;;-2.89;100.00;103186.47;5042816;28;20033;-48
2022/01/12 05:50:28;;;;;;;4.38;1.50;;;;;;;-2.81;100.00;103182.81;5011973;28;20041;-49
2022/01/12 05:52:55;;;;;;;1.90;1.27;;;;;;;-2.82;100.00;103184.56;5023568;28;20037;-49
2022/01/12 05:55:21;;;;;;;6.72;2.42;;;;;;;-2.77;100.00;103184.44;5041100;28;20047;-47
2022/01/12 05:57:48;;;;;;;8.90;1.58;;;;;;;-2.75;100.00;103198.25;5025768;28;20095;-53
2022/01/12 06:00:16;;;;;;;6.20;1.63;;;;;;;-2.80;100.00;103210.50;5044577;28;20040;-47
2022/01/12 06:02:41;;;;;;;12.07;1.50;;;;;;;-2.77;100.00;103221.66;5046915;28;20035;-47
2022/01/12 06:05:08;;;;;;;4.22;1.48;;;;;;;-2.78;100.00;103230.34;5049380;28;20041;-50
2022/01/12 06:07:33;;;;;;;2.88;1.75;;;;;;;-2.79;100.00;103233.81;5065160;28;20518;-47
2022/01/12 06:09:59;;;;;;;6.63;1.35;;;;;;;-2.82;100.00;103230.44;5053009;28;20434;-49
2022/01/12 06:12:24;;;;;;;8.82;1.90;;;;;;;-2.87;100.00;103231.41;5046519;28;20044;-48
2022/01/12 06:14:49;;;;;;;11.07;2.50;;;;;;;-2.90;100.00;103235.81;5049817;28;20029;-47
2022/01/12 06:17:15;;;;;;;5.32;1.58;;;;;;;-2.91;100.00;103234.97;5046933;28;20024;-49
2022/01/12 06:19:40;;;;;;;5.28;1.13;;;;;;;-2.95;100.00;103241.13;5036834;28;20171;-50
2022/01/12 06:22:06;;;;;;;3.63;1.58;;;;;;;-2.97;100.00;103234.25;5040193;28;20079;-50
2022/01/12 06:24:32;;;;;;;6.68;1.50;;;;;;;-2.99;100.00;103231.72;5040989;28;20561;-50
2022/01/12 06:26:59;;;;;;;3.15;1.45;;;;;;;-3.03;100.00;103226.63;5063289;28;20033;-51
2022/01/12 06:29:40;;;;;;;4.05;1.52;;;;;;;-3.04;100.00;103233.56;5034652;28;20032;-48
2022/01/12 06:32:07;;;;;;;7.63;1.75;;;;;;;-3.03;100.00;103232.66;5052087;28;20101;-48
2022/01/12 06:34:33;;;;;;;3.33;1.50;;;;;;;-3.05;100.00;103234.44;5045158;28;20386;-50
2022/01/12 06:36:58;;;;;;;8.57;1.35;;;;;;;-3.07;100.00;103250.06;5059411;28;20036;-49
2022/01/12 06:39:25;;;;;;;5.88;1.35;;;;;;;-3.10;100.00;103257.94;5050376;28;20500;-50
2022/01/12 06:41:53;;;;;;;8.85;1.73;;;;;;;-3.09;100.00;103263.97;5056029;28;20102;-51
2022/01/12 06:44:20;;;;;;;3.88;0.95;;;;;;;-3.10;100.00;103262.22;5058233;28;20397;-51
2022/01/12 06:46:51;;;;;;;3.30;1.45;;;;;;;-3.17;100.00;103264.13;5044399;28;20028;-53
2022/01/12 06:49:16;;;;;;;8.38;1.40;;;;;;;-3.22;100.00;103263.38;5049950;28;20131;-51
2022/01/12 06:51:43;;;;;;;5.60;1.55;;;;;;;-3.21;100.00;103267.66;5052302;28;20025;-51
2022/01/12 06:54:10;;;;;;;8.50;1.58;;;;;;;-3.20;100.00;103268.50;5049709;28;20119;-47
2022/01/12 06:56:35;;;;;;;6.22;2.10;;;;;;;-3.22;100.00;103263.38;5051483;28;20549;-47
2022/01/12 06:59:02;;;;;;;7.45;2.92;;;;;;;-3.24;100.00;103259.09;5056643;28;20036;-48
2022/01/12 07:01:28;;;;;;;6.32;1.42;;;;;;;-3.25;100.00;103265.16;5037497;28;20505;-47
2022/01/12 07:03:53;;;;;;;4.28;2.03;;;;;;;-3.28;100.00;103271.28;5051318;28;20064;-48
2022/01/12 07:06:18;;;;;;;4.70;0.88;;;;;;;-3.37;100.00;103259.38;5058572;28;20724;-48
2022/01/12 07:08:44;;;;;;;9.45;3.08;;;;;;;-3.35;100.00;103260.19;5048145;28;20148;-49
2022/01/12 07:11:10;;;;;;;0.98;0.75;;;;;;;-3.33;100.00;103255.84;5040942;28;20067;-48
2022/01/12 07:13:35;;;;;;;2.97;1.20;;;;;;;-3.34;100.00;103266.22;5031466;28;20037;-51
2022/01/12 07:16:01;;;;;;;13.80;1.83;;;;;;;-3.36;100.00;103275.78;5038303;28;20112;-51
2022/01/12 07:18:29;;;;;;;5.03;1.27;;;;;;;-3.41;100.00;103270.69;5015444;28;20047;-50
2022/01/12 07:20:55;;;;;;;14.90;1.58;;;;;;;-3.44;100.00;103275.94;5021776;28;20425;-48
2022/01/12 07:23:20;;;;;;;0.88;0.50;;;;;;;-3.45;100.00;103269.06;5022822;28;20598;-48
2022/01/12 07:25:46;;;;;;;3.53;1.77;;;;;;;-3.39;100.00;103279.28;5028102;28;20289;-48
2022/01/12 07:28:11;;;;;;;4.53;1.40;;;;;;;-3.39;100.00;103296.59;5036015;28;20033;-48
2022/01/12 07:30:36;;;;;;;6.38;1.15;;;;;;;-3.42;100.00;103299.28;5043083;28;20033;-46
2022/01/12 07:33:02;;;;;;;4.00;0.90;;;;;;;-3.44;100.00;103303.63;5036083;28;20403;-46
2022/01/12 07:35:27;;;;;;;3.40;0.43;;;;;;;-3.49;100.00;103314.09;5037661;28;20120;-50
2022/01/12 07:37:53;;;;;;;6.03;1.38;;;;;;;-3.52;100.00;103320.19;5039283;28;20064;-51
2022/01/12 07:40:18;;;;;;;6.30;1.40;;;;;;;-3.52;100.00;103320.19;5024309;28;20540;-49
2022/01/12 07:42:45;;;;;;;8.20;1.20;;;;;;;-3.51;100.00;103318.47;5037237;28;20132;-50
2022/01/12 07:45:19;;;;;;;1.23;0.80;;;;;;;-3.52;100.00;103316.75;5037220;28;20041;-51
2022/01/12 07:47:44;;;;;;;7.90;1.98;;;;;;;-3.60;100.00;103311.72;5020729;28;20131;-52
2022/01/12 07:50:11;;;;;;;9.23;1.33;;;;;;;-3.65;100.00;103317.88;5032915;28;20587;-51
2022/01/12 07:52:37;;;;;;;2.72;1.10;;;;;;;-3.69;100.00;103318.81;5035616;28;20041;-52
2022/01/12 07:55:03;;;;;;;5.38;1.20;;;;;;;-3.60;100.00;103321.25;5028425;28;20033;-48
2022/01/12 07:57:28;;;;;;;7.90;2.05;;;;;;;-3.50;100.00;103317.59;5030964;28;20120;-49
2022/01/12 07:59:54;;;;;;;11.07;1.08;;;;;;;-3.43;100.00;103321.78;5028246;28;20037;-48
2022/01/12 08:02:19;;;;;;;7.28;2.15;;;;;;;-3.45;100.00;103331.31;5027279;28;20033;-51
2022/01/12 08:04:45;;;;;;;4.28;1.42;;;;;;;-3.49;100.00;103334.84;5025431;28;20043;-47
2022/01/12 08:07:11;;;;;;;5.05;1.45;;;;;;;-3.51;100.00;103331.44;5020434;28;20379;-51
2022/01/12 08:09:40;;;;;;;7.57;1.98;;;;;;;-3.49;100.00;103332.25;5028611;28;20564;-51
2022/01/12 08:12:07;;;;;;;3.95;1.02;;;;;;;-3.47;100.00;103342.63;5021782;28;20033;-46
2022/01/12 08:14:32;;;;;;;8.60;1.90;;;;;;;-3.47;100.00;103353.84;5014345;28;20544;-49
2022/01/12 08:16:58;;;;;;;11.20;1.85;;;;;;;-3.51;100.00;103352.22;5027531;28;20034;-48
2022/01/12 08:19:25;;;;;;;5.07;1.60;;;;;;;-3.52;100.00;103356.50;5025001;28;20029;-48
2022/01/12 08:21:50;;;;;;;10.65;1.08;;;;;;;-3.51;100.00;103362.59;5025710;28;20419;-51
2022/01/12 08:24:16;;;;;;;5.05;1.25;;;;;;;-3.47;100.00;103369.41;5027548;28;20113;-51
2022/01/12 08:26:43;;;;;;;3.85;1.65;;;;;;;-3.46;100.00;103365.06;5025043;28;20029;-51
2022/01/12 08:29:14;;;;;;;6.97;1.55;;;;;;;-3.48;100.00;103367.69;5027403;28;20388;-47
2022/01/12 08:31:41;;;;;;;6.10;1.75;;;;;;;-3.48;100.00;103375.50;5028317;28;20109;-51
2022/01/12 08:34:06;;;;;;;5.22;1.02;;;;;;;-3.47;100.00;103379.78;5029146;28;20061;-49
2022/01/12 08:36:31;;;;;;;1.13;0.65;;;;;;;-3.52;100.00;103377.25;5031774;28;20129;-49
2022/01/12 08:38:59;;;;;;;12.00;2.30;;;;;;;-3.48;100.00;103388.47;5036190;28;20114;-51
2022/01/12 08:41:25;;;;;;;4.80;1.20;;;;;;;-3.43;100.00;103386.63;5034501;28;20025;-49
2022/01/12 08:43:50;;;;;;;13.50;2.33;;;;;;;-3.44;100.00;103394.44;5029971;28;20021;-49
2022/01/12 08:46:16;;;;;;;7.95;1.70;;;;;;;-3.47;100.00;103399.69;5031538;28;20177;-48
2022/01/12 08:48:41;;;;;;;5.45;0.65;;;;;;;-3.46;100.00;103398.78;5016838;28;20671;-48
2022/01/12 08:51:06;;;;;;;5.65;1.83;;;;;;;-3.44;100.00;103410.84;5034051;28;20061;-46
2022/01/12 08:53:32;;;;;;;9.60;1.33;;;;;;;-3.41;100.00;103413.38;5032600;28;20554;-49
2022/01/12 08:55:58;;;;;;;3.28;0.93;;;;;;;-3.45;100.00;103409.16;5036226;28;20432;-49
2022/01/12 08:58:23;;;;;;;4.13;0.98;;;;;;;-3.43;100.00;103414.28;5031701;28;20034;-52
2022/01/12 09:00:49;;;;;;;2.67;1.40;;;;;;;-3.32;100.00;103414.97;5022579;28;20505;-51
2022/01/12 09:03:14;;;;;;;5.03;1.40;;;;;;;-3.34;100.00;103411.53;5046126;28;20029;-52
2022/01/12 09:05:40;;;;;;;3.55;1.40;;;;;;;-3.31;100.00;103422.69;5037488;28;20033;-47
2022/01/12 09:08:06;;;;;;;9.18;2.63;;;;;;;-3.30;100.00;103418.38;5037656;28;20036;-52
2022/01/12 09:10:33;;;;;;;7.55;1.48;;;;;;;-3.32;100.00;103415.81;5036351;28;20394;-49
2022/01/12 09:12:59;;;;;;;4.75;1.35;;;;;;;-3.21;100.00;103422.53;5043171;28;20033;-50
2022/01/12 09:15:25;;;;;;;3.55;1.88;;;;;;;-3.11;100.00;103421.47;5043140;28;20021;-47
2022/01/12 09:17:52;;;;;;;13.05;2.45;;;;;;;-3.05;100.00;103429.13;5047920;28;20036;-48
2022/01/12 09:20:18;;;;;;;6.50;2.75;;;;;;;-3.04;100.00;103430.84;5017074;28;21984;-49
2022/01/12 09:22:44;;;;;;;4.65;2.20;;;;;;;-3.01;100.00;103437.72;5047350;28;20056;-53
2022/01/12 09:25:10;;;;;;;10.68;2.53;;;;;;;-2.95;100.00;103437.59;5045561;28;20029;-52
2022/01/12 09:27:35;;;;;;;4.70;2.15;;;;;;;-2.88;100.00;103447.81;5034404;28;20079;-53
2022/01/12 09:30:01;;;;;;;6.38;2.05;;;;;;;-2.81;100.00;103447.69;5034710;28;20410;-47
2022/01/12 09:32:26;;;;;;;5.07;2.15;;;;;;;-2.75;100.00;103444.97;5046880;28;20053;-48
2022/01/12 09:34:52;;;;;;;7.78;2.45;;;;;;;-2.69;100.00;103448.28;5039238;28;20091;-47
2022/01/12 09:37:20;;;;;;;5.45;2.25;;;;;;;-2.62;100.00;103443.84;5043036;28;20033;-48
2022/01/12 09:39:45;;;;;;;4.82;1.27;;;;;;;-2.55;100.00;103442.81;5046799;28;20471;-48
2022/01/12 09:42:11;;;;;;;1.60;0.82;;;;;;;-2.52;100.00;103449.69;5033637;28;20063;-50
2022/01/12 09:44:38;;;;;;;11.68;2.45;;;;;;;-2.47;100.00;103437.47;5043901;28;20576;-49
2022/01/12 09:47:06;;;;;;;4.22;1.70;;;;;;;-2.41;100.00;103438.16;5037260;28;20036;-48
2022/01/12 09:49:32;;;;;;;4.38;1.75;;;;;;;-2.31;100.00;103441.41;5041796;28;20509;-48
2022/01/12 09:51:58;;;;;;;15.82;3.65;;;;;;;-2.22;100.00;103443.81;5047101;28;20077;-47
2022/01/12 09:54:25;;;;;;;7.22;3.50;;;;;;;-1.96;100.00;103444.94;5037676;28;20029;-50
2022/01/12 09:56:51;;;;;;;5.65;3.05;;;;;;;-1.79;100.00;103447.09;5024943;28;20029;-52
2022/01/12 09:59:17;;;;;;;6.88;2.03;;;;;;;-1.67;100.00;103448.56;5030946;28;20378;-49
2022/01/12 10:01:44;;;;;;;4.65;1.80;;;;;;;-1.62;100.00;103449.31;5032276;28;20041;-49
2022/01/12 10:04:18;;;;;;;19.98;4.20;;;;;;;-1.53;100.00;103451.66;5036505;28;20389;-50
2022/01/12 10:06:53;;;;;;;3.55;2.35;;;;;;;-1.48;100.00;103452.38;5035442;28;20107;-52
2022/01/12 10:09:25;;;;;;;4.57;1.23;;;;;;;-1.41;100.00;103450.50;5031061;28;20116;-48
2022/01/12 10:12:05;;;;;;;8.68;2.65;;;;;;;-1.35;100.00;103439.91;5035749;28;20043;-52
2022/01/12 10:14:52;;;;;;;4.35;2.20;;;;;;;-1.31;100.00;103444.16;5036663;28;20044;-51
2022/01/12 10:17:19;;;;;;;6.55;1.60;;;;;;;-1.23;100.00;103450.00;5035227;28;20036;-47
2022/01/12 10:19:45;;;;;;;8.85;2.80;;;;;;;-1.15;100.00;103455.00;5038315;28;20066;-51
2022/01/12 10:22:16;;;;;;;8.00;2.38;;;;;;;-1.02;100.00;103456.34;5044104;28;20029;-53
2022/01/12 10:24:44;;;;;;;5.22;1.90;;;;;;;-0.93;100.00;103450.91;5040189;28;20037;-50
2022/01/12 10:27:15;;;;;;;8.55;3.08;;;;;;;-0.90;100.00;103456.00;5040204;28;20037;-51
2022/01/12 10:29:41;;;;;;;8.40;3.30;;;;;;;-0.91;100.00;103458.66;5043971;28;20036;-48
2022/01/12 10:32:10;;;;;;;8.30;2.08;;;;;;;-0.84;100.00;103454.97;5044242;28;20094;-52
2022/01/12 10:34:38;;;;;;;7.85;2.97;;;;;;;-0.68;100.00;103456.22;5043547;28;20099;-52
2022/01/12 10:37:07;;;;;;;7.60;2.08;;;;;;;-0.61;100.00;103448.25;5046397;28;20044;-53
2022/01/12 10:39:33;;;;;;;6.35;2.15;;;;;;;-0.49;100.00;103447.88;5034481;28;20032;-51
2022/01/12 10:42:02;;;;;;;12.77;3.00;;;;;;;-0.28;100.00;103448.97;5039781;28;20036;-50
2022/01/12 10:44:36;;;;;;;4.63;2.53;;;;;;;-0.04;100.00;103442.13;5045945;28;20037;-49
2022/01/12 10:47:05;;;;;;;12.07;3.90;;;;;;;0.17;100.00;103443.19;5040981;28;20048;-49
2022/01/12 10:49:33;;;;;;;10.77;3.95;;;;;;;0.32;100.00;103439.22;5030008;28;20085;-49
2022/01/12 10:51:59;;;;;;;7.90;4.57;;;;;;;0.32;100.00;103439.22;5043102;28;20036;-49
2022/01/12 10:54:24;;;;;;;10.07;3.92;;;;;;;0.29;100.00;103437.56;5037669;28;20029;-51
2022/01/12 10:56:50;;;;;;;17.25;4.50;;;;;;;0.28;100.00;103435.84;5045932;28;20111;-51
2022/01/12 10:59:20;;;;;;;17.90;6.68;;;;;;;0.44;100.00;103433.56;5046925;28;20504;-51
2022/01/12 11:01:45;;;;;;;22.20;6.97;;;;;;;0.62;100.00;103432.06;5045424;28;20025;-49
2022/01/12 11:04:12;;;;;;;16.80;5.95;;;;;;;0.82;100.00;103428.75;5040691;28;20044;-50
2022/01/12 11:06:40;;;;;;;8.52;4.35;;;;;;;1.12;100.00;103431.16;5037773;28;20055;-51
2022/01/12 11:09:06;;;;;;;10.85;5.20;;;;;;;1.28;100.00;103422.66;5015427;28;20388;-53
2022/01/12 11:11:32;;;;;;;13.82;4.95;;;;;;;1.44;100.00;103416.84;5041844;28;20409;-51
2022/01/12 11:13:57;;;;;;;15.00;5.13;;;;;;;1.63;100.00;103412.59;5025784;28;20040;-51
2022/01/12 11:16:25;;;;;;;13.18;5.85;;;;;;;1.85;100.00;103406.50;5042790;28;20028;-50
2022/01/12 11:18:54;;;;;;;18.70;7.93;;;;;;;2.04;100.00;103412.69;5043188;28;20109;-51
2022/01/12 11:21:41;;;;;;;21.80;8.98;;;;;;;2.15;100.00;103414.88;5041862;28;20087;-47
2022/01/12 11:24:11;;;;;;;10.82;7.03;;;;;;;2.32;100.00;103411.50;5039843;28;20049;-53
2022/01/12 11:26:36;;;;;;;19.40;8.02;;;;;;;2.47;100.00;103404.78;5038722;28;20026;-51
2022/01/12 11:29:04;;;;;;;13.05;6.93;;;;;;;2.68;100.00;103406.44;5042179;28;20029;-47
2022/01/12 11:31:38;;;;;;;16.13;7.22;;;;;;;2.83;100.00;103403.13;5042674;28;20032;-53
2022/01/12 11:34:03;;;;;;;15.02;5.60;;;;;;;2.93;100.00;103402.75;5041979;28;20036;-49
2022/01/12 11:36:40;;;;;;;14.27;6.40;;;;;;;3.09;100.00;103400.25;5038936;28;20021;-52
2022/01/12 11:39:08;;;;;;;18.90;6.57;;;;;;;3.25;100.00;103394.25;5038336;28;20398;-53
2022/01/12 11:41:35;;;;;;;11.93;5.38;;;;;;;3.37;100.00;103395.44;5032284;28;20060;-51
2022/01/12 11:44:01;;;;;;;8.65;5.13;;;;;;;3.48;100.00;103397.53;5038696;28;20453;-50
2022/01/12 11:46:39;;;;;;;18.67;6.47;;;;;;;3.53;100.00;103385.03;5040543;28;20060;-49
2022/01/12 11:49:05;;;;;;;16.48;6.55;;;;;;;3.70;100.00;103387.72;5037083;28;20107;-48
2022/01/12 11:51:40;;;;;;;11.70;5.60;;;;;;;3.82;100.00;103380.16;5039480;28;20132;-51
2022/01/12 11:54:09;;;;;;;13.32;5.65;;;;;;;3.92;100.00;103389.28;5037214;28;20480;-47
2022/01/12 11:56:36;;;;;;;18.70;7.47;;;;;;;3.97;100.00;103392.50;5040085;28;20021;-52
2022/01/12 11:59:11;;;;;;;19.15;8.45;;;;;;;4.08;100.00;103391.97;5037038;28;20123;-48
2022/01/12 12:01:51;;;;;;;19.15;8.07;;;;;;;4.21;100.00;103390.44;5038312;28;20025;-49
2022/01/12 12:04:25;;;;;;;15.65;5.13;;;;;;;4.32;100.00;103384.63;5037235;28;20120;-52
2022/01/12 12:07:19;;;;;;;18.33;7.38;;;;;;;4.42;100.00;103385.88;5039520;28;20513;-48
2022/01/12 12:09:52;;;;;;;20.00;7.70;;;;;;;4.56;100.00;103387.75;5036097;28;20037;-52
2022/01/12 12:12:27;;;;;;;13.23;7.55;;;;;;;4.67;100.00;103384.56;5044686;28;20479;-50
2022/01/12 12:14:55;;;;;;;19.15;5.63;;;;;;;4.74;100.00;103393.81;5045160;28;20035;-53
2022/01/12 12:17:23;;;;;;;20.20;5.70;;;;;;;4.80;100.00;103383.84;5044441;28;20040;-53
2022/01/12 12:19:49;;;;;;;20.85;6.90;;;;;;;4.95;100.00;103379.50;5031567;28;20022;-52
2022/01/12 12:22:21;;;;;;;14.23;4.40;;;;;;;5.04;100.00;103378.19;5044290;28;20469;-49
2022/01/12 12:24:53;;;;;;;16.77;5.10;;;;;;;5.13;100.00;103379.44;5048522;28;20507;-51
2022/01/12 12:27:21;;;;;;;11.45;4.63;;;;;;;5.25;100.00;103373.53;5043492;28;20035;-52
2022/01/12 12:29:48;;;;;;;17.95;3.97;;;;;;;5.30;100.00;103366.22;5048349;28;20025;-49
2022/01/12 12:32:15;;;;;;;12.40;4.32;;;;;;;5.43;100.00;103371.63;5048218;28;20591;-50
2022/01/12 12:34:42;;;;;;;5.50;2.80;;;;;;;5.54;100.00;103365.75;5044640;28;20510;-50
2022/01/12 12:37:10;;;;;;;8.48;2.60;;;;;;;5.58;100.00;103364.66;5042710;28;20064;-49